createdAt,value
2019-02-24T00:01:27.066Z,86.03
2019-02-24T00:03:56.486Z,85.94
2019-02-24T00:06:26.362Z,85.65
2019-02-24T00:08:55.819Z,85.67
2019-02-24T00:11:24.708Z,85.51
2019-02-24T00:13:53.483Z,85.65
2019-02-24T00:16:22.303Z,85.36
2019-02-24T00:18:51.424Z,85.49
2019-02-24T00:21:20.188Z,85.47
2019-02-24T00:23:48.960Z,84.13
2019-02-24T00:26:18.055Z,84.19
2019-02-24T00:28:47.893Z,84.90
2019-02-24T00:31:17.476Z,85.11
2019-02-24T00:33:46.275Z,85.40
2019-02-24T00:36:15.424Z,85.68
2019-02-24T00:38:44.424Z,85.70
2019-02-24T00:41:13.805Z,85.76
2019-02-24T00:43:42.934Z,85.97
2019-02-24T00:46:11.754Z,86.14
2019-02-24T00:48:40.531Z,86.25
2019-02-24T00:51:09.299Z,86.38
2019-02-24T00:53:38.106Z,86.77
2019-02-24T00:56:06.873Z,86.96
2019-02-24T00:58:35.633Z,87.08
2019-02-24T01:01:04.992Z,86.90
2019-02-24T01:03:34.464Z,87.15
2019-02-24T01:06:04.143Z,87.28
2019-02-24T01:08:33.654Z,87.09
2019-02-24T01:11:02.455Z,87.01
2019-02-24T01:13:31.218Z,86.71
2019-02-24T01:16:00.418Z,86.94
2019-02-24T01:18:29.182Z,86.71
2019-02-24T01:20:58.355Z,86.82
2019-02-24T01:23:27.461Z,87.17
2019-02-24T01:25:56.609Z,86.86
2019-02-24T01:28:25.785Z,86.51
2019-02-24T01:30:54.537Z,86.51
2019-02-24T01:33:23.751Z,86.47
2019-02-24T01:35:53.527Z,86.63
2019-02-24T01:38:22.320Z,86.66
2019-02-24T01:40:51.412Z,86.22
2019-02-24T01:43:20.172Z,86.03
2019-02-24T01:45:48.967Z,87.43
2019-02-24T01:48:17.743Z,87.53
2019-02-24T01:50:46.906Z,87.50
2019-02-24T01:53:15.693Z,86.93
2019-02-24T01:55:44.848Z,86.70
2019-02-24T01:58:13.684Z,87.03
2019-02-24T02:00:43.142Z,87.09
2019-02-24T02:03:11.905Z,86.79
2019-02-24T02:05:40.675Z,87.07
2019-02-24T02:08:09.762Z,87.10
2019-02-24T02:10:38.530Z,87.00
2019-02-24T02:13:07.347Z,87.27
2019-02-24T02:15:36.353Z,86.99
2019-02-24T02:18:05.229Z,87.10
2019-02-24T02:20:34.063Z,86.99
2019-02-24T02:23:02.853Z,86.62
2019-02-24T02:25:31.694Z,86.35
2019-02-24T02:28:00.825Z,86.54
2019-02-24T02:30:29.614Z,86.59
2019-02-24T02:32:58.374Z,86.85
2019-02-24T02:35:27.176Z,86.87
2019-02-24T02:37:55.976Z,86.96
2019-02-24T02:40:24.751Z,87.19
2019-02-24T02:42:53.517Z,86.68
2019-02-24T02:45:22.408Z,86.41
2019-02-24T02:47:51.203Z,86.74
2019-02-24T02:50:20.460Z,86.09
2019-02-24T02:52:49.334Z,86.29
2019-02-24T02:55:18.218Z,85.92
2019-02-24T02:57:47.287Z,85.53
2019-02-24T03:00:31.855Z,85.89
2019-02-24T03:03:00.686Z,86.41
2019-02-24T03:05:29.710Z,86.62
2019-02-24T03:08:03.261Z,87.31
2019-02-24T03:10:32.506Z,87.84
2019-02-24T03:13:02.097Z,87.33
2019-02-24T03:15:31.322Z,87.03
2019-02-24T03:18:00.122Z,86.74
2019-02-24T03:20:28.889Z,86.57
2019-02-24T03:22:57.661Z,87.82
2019-02-24T03:25:27.479Z,87.28
2019-02-24T03:27:56.687Z,87.44
2019-02-24T03:30:25.557Z,87.68
2019-02-24T03:32:55.025Z,88.29
2019-02-24T03:35:24.298Z,88.47
2019-02-24T03:37:53.438Z,88.78
2019-02-24T03:40:22.858Z,88.58
2019-02-24T03:42:51.955Z,88.34
2019-02-24T03:45:20.815Z,88.32
2019-02-24T03:47:49.718Z,88.05
2019-02-24T03:50:18.789Z,87.86
2019-02-24T03:52:47.744Z,87.29
2019-02-24T03:55:16.582Z,86.75
2019-02-24T03:57:45.496Z,86.30
2019-02-24T04:00:14.362Z,86.09
2019-02-24T04:02:43.667Z,85.81
2019-02-24T04:05:13.600Z,85.22
2019-02-24T04:07:42.694Z,84.48
2019-02-24T04:10:11.519Z,84.41
2019-02-24T04:12:40.388Z,84.19
2019-02-24T04:15:09.554Z,83.96
2019-02-24T04:17:38.333Z,83.71
2019-02-24T04:20:07.229Z,84.22
2019-02-24T04:22:36.001Z,85.09
2019-02-24T04:25:04.925Z,86.17
2019-02-24T04:27:33.738Z,86.54
2019-02-24T04:30:02.530Z,87.15
2019-02-24T04:32:31.361Z,87.53
2019-02-24T04:35:00.311Z,87.64
2019-02-24T04:37:29.109Z,87.68
2019-02-24T04:39:58.269Z,87.75
2019-02-24T04:42:27.037Z,88.09
2019-02-24T04:44:55.840Z,88.22
2019-02-24T04:47:24.605Z,88.39
2019-02-24T04:49:53.728Z,88.72
2019-02-24T04:52:22.867Z,88.65
2019-02-24T04:54:52.105Z,89.54
2019-02-24T04:57:21.204Z,89.58
2019-02-24T04:59:50.322Z,89.03
2019-02-24T05:02:19.874Z,89.04
2019-02-24T05:04:49.743Z,89.07
2019-02-24T05:07:19.333Z,89.41
2019-02-24T05:09:49.211Z,89.54
2019-02-24T05:12:18.285Z,89.36
2019-02-24T05:14:47.127Z,89.45
2019-02-24T05:17:15.861Z,88.87
2019-02-24T05:19:44.636Z,88.74
2019-02-24T05:22:13.430Z,88.40
2019-02-24T05:24:42.588Z,88.30
2019-02-24T05:27:11.395Z,88.14
2019-02-24T05:29:46.022Z,88.74
2019-02-24T05:32:11.590Z,88.79
2019-02-24T05:34:41.467Z,88.67
2019-02-24T05:37:10.946Z,88.37
2019-02-24T05:39:39.746Z,88.81
2019-02-24T05:42:08.602Z,88.96
2019-02-24T05:44:37.742Z,89.23
2019-02-24T05:47:06.620Z,89.63
2019-02-24T05:49:36.430Z,89.64
2019-02-24T05:52:05.590Z,89.93
2019-02-24T05:54:35.386Z,89.99
2019-02-24T05:57:05.382Z,89.90
2019-02-24T05:59:34.263Z,90.08
2019-02-24T06:02:03.073Z,90.08
2019-02-24T06:04:31.849Z,89.98
2019-02-24T06:07:00.627Z,89.80
2019-02-24T06:09:29.450Z,89.62
2019-02-24T06:11:58.998Z,89.67
2019-02-24T06:14:27.764Z,89.78
2019-02-24T06:16:56.571Z,89.70
2019-02-24T06:19:25.647Z,89.81
2019-02-24T06:21:55.225Z,89.83
2019-02-24T06:24:24.362Z,89.63
2019-02-24T06:26:53.140Z,89.25
2019-02-24T06:29:22.918Z,89.24
2019-02-24T06:31:53.157Z,89.24
2019-02-24T06:34:22.630Z,89.49
2019-02-24T06:36:51.461Z,89.46
2019-02-24T06:39:20.316Z,89.25
2019-02-24T06:41:49.095Z,89.03
2019-02-24T06:44:18.254Z,88.98
2019-02-24T06:46:47.056Z,88.95
2019-02-24T06:49:15.856Z,88.80
2019-02-24T06:51:45.027Z,88.56
2019-02-24T06:54:14.789Z,88.57
2019-02-24T06:56:43.578Z,88.24
2019-02-24T06:59:15.669Z,88.14
2019-02-24T07:01:50.687Z,88.07
2019-02-24T07:04:19.463Z,88.18
2019-02-24T07:06:48.672Z,87.91
2019-02-24T07:10:04.555Z,87.65
2019-02-24T07:12:47.259Z,87.35
2019-02-24T07:15:16.483Z,86.37
2019-02-24T07:17:45.721Z,86.30
2019-02-24T07:20:14.870Z,85.93
2019-02-24T07:22:44.002Z,85.36
2019-02-24T07:25:13.606Z,84.99
2019-02-24T07:27:43.536Z,85.18
2019-02-24T07:30:23.182Z,85.03
2019-02-24T07:32:46.481Z,84.04
2019-02-24T07:35:15.301Z,82.73
2019-02-24T07:37:48.074Z,82.89
2019-02-24T07:40:17.503Z,82.42
2019-02-24T07:42:46.322Z,80.67
2019-02-24T07:45:15.506Z,80.69
2019-02-24T07:47:44.268Z,80.00
2019-02-24T07:50:14.531Z,79.92
2019-02-24T07:52:43.593Z,78.91
2019-02-24T07:55:13.461Z,79.56
2019-02-24T07:57:42.938Z,77.59
2019-02-24T08:00:12.227Z,77.90
2019-02-24T08:02:40.989Z,76.59
2019-02-24T08:05:09.879Z,75.92
2019-02-24T08:07:39.029Z,75.82
2019-02-24T08:10:07.973Z,75.87
2019-02-24T08:12:36.790Z,75.60
2019-02-24T08:15:09.858Z,74.33
2019-02-24T08:17:38.810Z,73.08
2019-02-24T08:20:09.074Z,70.95
2019-02-24T08:22:41.032Z,70.58
2019-02-24T08:25:11.828Z,70.44
2019-02-24T08:27:43.749Z,70.65
2019-02-24T08:30:19.534Z,68.36
2019-02-24T08:32:49.710Z,67.18
2019-02-24T08:35:18.911Z,64.86
2019-02-24T08:37:48.072Z,63.19
2019-02-24T08:40:17.797Z,57.93
2019-02-24T08:42:47.401Z,53.74
2019-02-24T08:45:16.739Z,52.93
2019-02-24T08:47:46.252Z,52.90
2019-02-24T08:50:15.750Z,52.87
2019-02-24T08:52:45.299Z,52.73
2019-02-24T08:55:14.866Z,47.56
2019-02-24T08:57:44.351Z,46.55
2019-02-24T09:00:13.588Z,44.45
2019-02-24T09:02:42.388Z,45.72
2019-02-24T09:05:11.490Z,44.57
2019-02-24T09:07:40.660Z,44.79
2019-02-24T09:10:09.616Z,44.10
2019-02-24T09:12:38.720Z,43.99
2019-02-24T09:15:08.847Z,42.53
2019-02-24T09:17:37.965Z,42.45
2019-02-24T09:20:07.763Z,39.44
2019-02-24T09:22:36.552Z,38.64
2019-02-24T09:25:05.578Z,39.42
2019-02-24T09:27:34.421Z,39.37
2019-02-24T09:30:03.738Z,39.99
2019-02-24T09:32:32.574Z,40.23
2019-02-24T09:35:01.351Z,38.50
2019-02-24T09:37:30.121Z,38.81
2019-02-24T09:39:59.407Z,38.95
2019-02-24T09:42:28.592Z,39.57
2019-02-24T09:44:57.386Z,41.97
2019-02-24T09:47:26.142Z,44.55
2019-02-24T09:49:55.295Z,42.58
2019-02-24T09:52:24.112Z,39.50
2019-02-24T09:54:52.868Z,37.04
2019-02-24T09:57:21.648Z,35.97
2019-02-24T09:59:51.546Z,35.03
2019-02-24T10:02:38.767Z,33.20
2019-02-24T10:05:07.737Z,32.93
2019-02-24T10:07:36.880Z,29.98
2019-02-24T10:10:08.976Z,29.75
2019-02-24T10:12:37.927Z,30.29
2019-02-24T10:15:07.111Z,27.08
2019-02-24T10:17:35.991Z,25.99
2019-02-24T10:20:05.013Z,25.28
2019-02-24T10:22:33.840Z,23.41
2019-02-24T10:25:02.744Z,22.94
2019-02-24T10:27:31.591Z,21.27
2019-02-24T10:30:00.377Z,22.10
2019-02-24T10:32:29.605Z,21.63
2019-02-24T10:34:58.483Z,22.37
2019-02-24T10:37:27.287Z,20.46
2019-02-24T10:39:56.171Z,20.27
2019-02-24T10:42:24.948Z,18.98
2019-02-24T10:44:53.714Z,17.15
2019-02-24T10:47:22.528Z,17.28
2019-02-24T10:49:51.313Z,15.93
2019-02-24T10:52:20.101Z,15.15
2019-02-24T10:54:48.979Z,15.26
2019-02-24T10:57:17.744Z,14.95
2019-02-24T10:59:46.517Z,14.19
2019-02-24T11:02:15.312Z,15.12
2019-02-24T11:04:44.186Z,14.10
2019-02-24T11:07:12.955Z,13.97
2019-02-24T11:09:41.719Z,14.51
2019-02-24T11:12:10.522Z,13.94
2019-02-24T11:14:39.286Z,13.17
2019-02-24T11:17:08.401Z,12.52
2019-02-24T11:19:37.236Z,11.79
2019-02-24T11:22:06.177Z,12.81
2019-02-24T11:24:35.015Z,11.94
2019-02-24T11:27:03.808Z,11.25
2019-02-24T11:29:33.437Z,12.52
2019-02-24T11:32:02.331Z,11.56
2019-02-24T11:34:31.125Z,12.62
2019-02-24T11:36:59.937Z,12.46
2019-02-24T11:39:28.785Z,12.15
2019-02-24T11:41:57.943Z,11.17
2019-02-24T11:44:28.490Z,11.01
2019-02-24T11:46:57.426Z,10.13
2019-02-24T11:49:26.789Z,10.52
2019-02-24T11:52:03.680Z,10.47
2019-02-24T11:54:27.435Z,9.28
2019-02-24T11:56:56.385Z,8.76
2019-02-24T11:59:25.833Z,7.73
2019-02-24T12:01:58.102Z,7.28
2019-02-24T12:04:29.482Z,7.62
2019-02-24T12:06:58.357Z,7.28
2019-02-24T12:09:27.519Z,6.90
2019-02-24T12:12:11.630Z,6.38
2019-02-24T12:14:41.615Z,6.40
2019-02-24T12:17:10.381Z,7.44
2019-02-24T12:19:39.248Z,6.91
2019-02-24T12:22:08.461Z,7.41
2019-02-24T12:24:37.765Z,6.66
2019-02-24T12:27:06.634Z,8.06
2019-02-24T12:29:35.395Z,7.10
2019-02-24T12:32:06.156Z,7.69
2019-02-24T12:34:35.167Z,9.14
2019-02-24T12:37:03.956Z,9.75
2019-02-24T12:39:33.162Z,9.46
2019-02-24T12:42:01.973Z,8.73
2019-02-24T12:44:30.744Z,9.46
2019-02-24T12:47:00.506Z,9.50
2019-02-24T12:49:29.928Z,9.76
2019-02-24T12:51:59.472Z,9.24
2019-02-24T12:54:29.016Z,9.30
2019-02-24T12:56:57.805Z,9.53
2019-02-24T12:59:26.642Z,9.08
2019-02-24T13:01:55.577Z,8.72
2019-02-24T13:04:24.868Z,8.38
2019-02-24T13:06:57.559Z,8.05
2019-02-24T13:09:29.151Z,7.64
2019-02-24T13:11:58.173Z,7.62
2019-02-24T13:14:27.082Z,7.67
2019-02-24T13:16:56.111Z,8.18
2019-02-24T13:19:24.968Z,8.02
2019-02-24T13:21:54.186Z,8.42
2019-02-24T13:24:23.257Z,8.85
2019-02-24T13:26:52.089Z,9.25
2019-02-24T13:29:21.047Z,8.25
2019-02-24T13:31:50.032Z,9.38
2019-02-24T13:34:18.955Z,9.24
2019-02-24T13:36:47.883Z,9.59
2019-02-24T13:39:17.049Z,9.52
2019-02-24T13:41:45.836Z,9.62
2019-02-24T13:44:14.630Z,8.83
2019-02-24T13:46:43.788Z,8.66
2019-02-24T13:49:12.937Z,8.25
2019-02-24T13:51:41.728Z,8.83
2019-02-24T13:54:10.489Z,8.01
2019-02-24T13:56:39.285Z,7.84
2019-02-24T13:59:08.043Z,7.51
2019-02-24T14:01:36.798Z,8.38
2019-02-24T14:04:05.599Z,8.48
2019-02-24T14:06:34.355Z,7.85
2019-02-24T14:09:03.135Z,7.00
2019-02-24T14:11:31.928Z,6.66
2019-02-24T14:14:00.692Z,6.41
2019-02-24T14:16:29.445Z,6.79
2019-02-24T14:18:58.247Z,5.96
2019-02-24T14:21:27.766Z,6.34
2019-02-24T14:23:56.917Z,6.15
2019-02-24T14:26:25.867Z,5.78
2019-02-24T14:28:54.630Z,4.90
2019-02-24T14:31:23.383Z,4.40
2019-02-24T14:33:52.706Z,4.73
2019-02-24T14:36:21.569Z,6.05
2019-02-24T14:38:50.540Z,6.95
2019-02-24T14:41:21.955Z,5.66
2019-02-24T14:43:51.506Z,6.74
2019-02-24T14:46:20.381Z,8.25
2019-02-24T14:48:49.192Z,6.56
2019-02-24T14:51:18.302Z,6.30
2019-02-24T14:53:47.064Z,9.23
2019-02-24T14:56:15.866Z,10.01
2019-02-24T14:58:44.639Z,12.85
2019-02-24T15:01:13.406Z,11.08
2019-02-24T15:03:42.251Z,9.36
2019-02-24T15:06:11.011Z,6.49
2019-02-24T15:08:39.778Z,6.48
2019-02-24T15:11:08.591Z,5.78
2019-02-24T15:13:37.360Z,6.31
2019-02-24T15:16:06.228Z,6.58
2019-02-24T15:18:34.987Z,6.24
2019-02-24T15:21:03.893Z,7.84
2019-02-24T15:23:32.779Z,9.03
2019-02-24T15:26:02.606Z,8.74
2019-02-24T15:28:31.775Z,11.26
2019-02-24T15:31:00.628Z,12.34
2019-02-24T15:33:29.844Z,11.79
2019-02-24T15:35:59.657Z,10.40
2019-02-24T15:38:29.148Z,11.35
2019-02-24T15:40:58.708Z,12.02
2019-02-24T15:43:27.714Z,11.76
2019-02-24T15:45:56.495Z,14.63
2019-02-24T15:48:25.267Z,17.52
2019-02-24T15:50:54.059Z,18.22
2019-02-24T15:53:22.908Z,17.08
2019-02-24T15:55:52.115Z,18.63
2019-02-24T15:58:20.904Z,22.16
2019-02-24T16:00:49.675Z,24.35
2019-02-24T16:03:18.527Z,27.47
2019-02-24T16:05:47.342Z,28.46
2019-02-24T16:08:16.111Z,30.61
2019-02-24T16:10:44.950Z,31.87
2019-02-24T16:13:16.984Z,36.48
2019-02-24T16:15:44.316Z,40.10
2019-02-24T16:18:13.091Z,40.82
2019-02-24T16:20:42.241Z,41.75
2019-02-24T16:23:10.999Z,43.15
2019-02-24T16:25:39.861Z,44.00
2019-02-24T16:28:08.665Z,45.00
2019-02-24T16:30:37.573Z,44.34
2019-02-24T16:33:10.619Z,44.89
2019-02-24T16:35:37.281Z,43.19
2019-02-24T16:38:06.173Z,43.15
2019-02-24T16:40:35.016Z,44.29
2019-02-24T16:43:03.866Z,43.86
2019-02-24T16:45:32.745Z,43.12
2019-02-24T16:48:01.537Z,45.67
2019-02-24T16:50:30.382Z,49.38
2019-02-24T16:52:59.182Z,51.39
2019-02-24T16:55:27.975Z,47.07
2019-02-24T16:57:56.771Z,48.70
2019-02-24T17:00:25.700Z,46.86
2019-02-24T17:02:54.571Z,53.92
2019-02-24T17:05:23.398Z,54.31
2019-02-24T17:07:52.309Z,51.91
2019-02-24T17:10:21.264Z,51.00
2019-02-24T17:12:50.084Z,50.83
2019-02-24T17:15:19.011Z,47.89
2019-02-24T17:17:47.836Z,47.12
2019-02-24T17:20:20.539Z,47.83
2019-02-24T17:22:49.310Z,48.96
2019-02-24T17:25:18.232Z,50.63
2019-02-24T17:27:47.020Z,53.92
2019-02-24T17:30:16.314Z,53.69
2019-02-24T17:32:45.722Z,56.25
2019-02-24T17:35:14.805Z,58.42
2019-02-24T17:37:44.058Z,58.20
2019-02-24T17:40:13.828Z,56.48
2019-02-24T17:42:42.746Z,59.00
2019-02-24T17:45:12.882Z,52.82
2019-02-24T17:47:42.893Z,51.20
2019-02-24T17:50:12.969Z,51.99
2019-02-24T17:52:42.785Z,53.93
2019-02-24T17:55:13.536Z,58.71
2019-02-24T17:57:42.883Z,60.52
2019-02-24T18:00:20.463Z,58.19
2019-02-24T18:02:49.241Z,56.25
2019-02-24T18:05:18.507Z,58.50
2019-02-24T18:07:47.348Z,56.60
2019-02-24T18:10:16.729Z,57.83
2019-02-24T18:12:46.565Z,58.87
2019-02-24T18:15:16.060Z,60.87
2019-02-24T18:17:45.656Z,60.20
2019-02-24T18:20:15.691Z,61.21
2019-02-24T18:22:45.577Z,62.65
2019-02-24T18:25:15.254Z,62.05
2019-02-24T18:27:44.516Z,64.00
2019-02-24T18:30:17.027Z,63.71
2019-02-24T18:32:45.891Z,63.16
2019-02-24T18:35:15.701Z,65.44
2019-02-24T18:37:45.317Z,64.66
2019-02-24T18:40:14.209Z,61.66
2019-02-24T18:42:43.424Z,60.99
2019-02-24T18:45:13.019Z,61.04
2019-02-24T18:47:42.290Z,60.86
2019-02-24T18:50:11.659Z,63.06
2019-02-24T18:52:40.893Z,64.86
2019-02-24T18:55:10.049Z,65.42
2019-02-24T18:57:39.308Z,64.49
2019-02-24T19:00:11.515Z,66.78
2019-02-24T19:02:40.722Z,66.13
2019-02-24T19:05:10.478Z,65.78
2019-02-24T19:07:39.899Z,62.06
2019-02-24T19:10:11.052Z,63.25
2019-02-24T19:12:39.882Z,65.78
2019-02-24T19:15:11.460Z,63.31
2019-02-24T19:17:40.738Z,61.88
2019-02-24T19:20:10.778Z,60.73
2019-02-24T19:22:40.683Z,63.58
2019-02-24T19:25:11.006Z,59.17
2019-02-24T19:27:40.466Z,60.69
2019-02-24T19:30:11.739Z,60.57
2019-02-24T19:32:41.410Z,61.52
2019-02-24T19:35:12.018Z,64.11
2019-02-24T19:37:40.906Z,65.90
2019-02-24T19:40:11.553Z,67.65
2019-02-24T19:42:40.463Z,67.49
2019-02-24T19:45:12.869Z,68.12
2019-02-24T19:47:41.709Z,68.74
2019-02-24T19:50:12.645Z,68.87
2019-02-24T19:53:12.509Z,67.26
2019-02-24T19:55:41.359Z,66.35
2019-02-24T19:58:10.572Z,64.29
2019-02-24T20:00:39.515Z,67.45
2019-02-24T20:03:08.649Z,67.79
2019-02-24T20:05:37.491Z,69.00
2019-02-24T20:08:06.452Z,70.74
2019-02-24T20:10:35.221Z,70.50
2019-02-24T20:13:04.166Z,68.70
2019-02-24T20:15:32.930Z,70.60
2019-02-24T20:18:01.824Z,66.37
2019-02-24T20:20:30.676Z,64.66
2019-02-24T20:22:59.466Z,66.76
2019-02-24T20:25:28.275Z,66.43
2019-02-24T20:27:57.124Z,65.89
2019-02-24T20:30:27.095Z,67.33
2019-02-24T20:32:56.282Z,69.17
2019-02-24T20:35:25.399Z,69.74
2019-02-24T20:37:54.344Z,69.94
2019-02-24T20:40:23.286Z,70.81
2019-02-24T20:42:52.050Z,71.32
2019-02-24T20:45:20.860Z,72.33
2019-02-24T20:47:49.875Z,73.26
2019-02-24T20:50:19.844Z,72.58
2019-02-24T20:52:49.699Z,71.83
2019-02-24T20:55:19.008Z,69.97
2019-02-24T20:57:48.308Z,68.85
2019-02-24T21:00:24.138Z,68.74
2019-02-24T21:02:53.529Z,69.95
2019-02-24T21:05:22.370Z,70.86
2019-02-24T21:07:51.858Z,70.66
2019-02-24T21:10:21.063Z,74.06
2019-02-24T21:12:50.249Z,72.75
2019-02-24T21:15:19.670Z,72.37
2019-02-24T21:17:48.455Z,72.17
2019-02-24T21:20:20.084Z,71.09
2019-02-24T21:22:50.621Z,71.24
2019-02-24T21:25:19.639Z,70.60
2019-02-24T21:27:49.250Z,71.78
2019-02-24T21:30:18.360Z,72.08
2019-02-24T21:32:47.883Z,70.91
2019-02-24T21:35:17.542Z,70.23
2019-02-24T21:37:46.898Z,69.85
2019-02-24T21:40:16.651Z,70.36
2019-02-24T21:42:45.972Z,70.76
2019-02-24T21:45:17.355Z,71.85
2019-02-24T21:47:46.580Z,72.06
2019-02-24T21:50:16.695Z,73.74
2019-02-24T21:52:45.930Z,73.16
2019-02-24T21:55:15.270Z,73.43
2019-02-24T21:57:44.952Z,73.98
2019-02-24T22:00:18.225Z,72.80
2019-02-24T22:02:47.081Z,72.78
2019-02-24T22:05:15.901Z,72.72
2019-02-24T22:07:45.011Z,72.44
2019-02-24T22:10:14.292Z,69.46
2019-02-24T22:12:43.097Z,68.88
2019-02-24T22:15:14.836Z,69.86
2019-02-24T22:17:44.037Z,69.22
2019-02-24T22:20:14.815Z,67.54
2019-02-24T22:22:43.926Z,69.67
2019-02-24T22:25:13.272Z,70.16
2019-02-24T22:27:42.138Z,70.13
2019-02-24T22:30:13.386Z,71.26
2019-02-24T22:32:42.642Z,72.26
2019-02-24T22:35:11.501Z,72.41
2019-02-24T22:37:41.303Z,72.47
2019-02-24T22:40:11.787Z,72.97
2019-02-24T22:42:40.738Z,72.83
2019-02-24T22:45:11.882Z,72.89
2019-02-24T22:47:40.702Z,73.50
2019-02-24T22:50:09.964Z,73.22
2019-02-24T22:52:38.879Z,73.29
2019-02-24T22:55:08.010Z,72.84
2019-02-24T22:57:36.916Z,72.09
2019-02-24T23:00:15.925Z,71.15
2019-02-24T23:02:44.852Z,70.83
2019-02-24T23:05:13.692Z,72.29
2019-02-24T23:07:42.643Z,72.67
2019-02-24T23:10:12.130Z,73.59
2019-02-24T23:12:40.972Z,73.65
2019-02-24T23:15:09.937Z,73.40
2019-02-24T23:17:38.700Z,73.25
2019-02-24T23:20:07.726Z,71.76
2019-02-24T23:22:36.570Z,71.22
2019-02-24T23:25:05.945Z,72.05
2019-02-24T23:27:34.725Z,71.58
2019-02-24T23:30:04.750Z,72.21
2019-02-24T23:32:33.567Z,72.78
2019-02-24T23:35:02.340Z,74.67
2019-02-24T23:37:31.113Z,74.82
2019-02-24T23:39:59.945Z,75.08
2019-02-24T23:42:28.814Z,74.63
2019-02-24T23:44:57.625Z,75.00
2019-02-24T23:47:26.393Z,75.66
2019-02-24T23:49:55.149Z,75.59
2019-02-24T23:52:23.965Z,75.36
2019-02-24T23:54:52.735Z,76.57
2019-02-24T23:57:21.529Z,76.91
2019-02-24T23:59:50.327Z,77.01
